createdAt,value
2019-01-26T00:00:45.393Z,7.46
2019-01-26T00:03:18.242Z,7.43
2019-01-26T00:05:48.976Z,7.46
2019-01-26T00:08:20.256Z,7.52
2019-01-26T00:10:51.850Z,7.54
2019-01-26T00:13:22.491Z,7.50
2019-01-26T00:15:54.372Z,7.53
2019-01-26T00:18:26.104Z,7.49
2019-01-26T00:20:56.622Z,7.48
2019-01-26T00:23:27.828Z,7.48
2019-01-26T00:25:58.520Z,7.44
2019-01-26T00:28:29.586Z,7.48
2019-01-26T00:31:00.332Z,7.49
2019-01-26T00:33:31.026Z,7.57
2019-01-26T00:36:02.009Z,7.54
2019-01-26T00:38:32.841Z,7.51
2019-01-26T00:41:03.692Z,7.53
2019-01-26T00:43:34.432Z,7.52
2019-01-26T00:46:05.475Z,7.48
2019-01-26T00:48:38.116Z,7.51
2019-01-26T00:51:10.019Z,7.52
2019-01-26T00:53:40.580Z,7.52
2019-01-26T00:56:11.464Z,7.53
2019-01-26T00:58:42.041Z,7.55
2019-01-26T01:01:12.790Z,7.52
2019-01-26T01:03:43.325Z,7.51
2019-01-26T01:06:14.061Z,7.56
2019-01-26T01:08:45.902Z,7.55
2019-01-26T01:11:16.464Z,7.52
2019-01-26T01:13:47.134Z,7.58
2019-01-26T01:16:17.615Z,7.58
2019-01-26T01:18:48.368Z,7.58
2019-01-26T01:21:19.229Z,7.55
2019-01-26T01:23:49.568Z,7.56
2019-01-26T01:26:20.178Z,7.49
2019-01-26T01:28:50.972Z,7.51
2019-01-26T01:31:22.186Z,7.55
2019-01-26T01:33:53.920Z,7.51
2019-01-26T01:36:24.714Z,7.47
2019-01-26T01:38:55.237Z,7.51
2019-01-26T01:41:26.159Z,7.49
2019-01-26T01:43:56.752Z,7.46
2019-01-26T01:46:28.859Z,7.48
2019-01-26T01:49:00.778Z,7.46
2019-01-26T01:51:31.399Z,7.47
2019-01-26T01:54:02.308Z,7.46
2019-01-26T01:56:33.048Z,7.48
2019-01-26T01:59:04.796Z,7.47
2019-01-26T02:01:35.433Z,7.49
2019-01-26T02:04:07.635Z,7.49
2019-01-26T02:06:38.358Z,7.51
2019-01-26T02:09:10.425Z,7.48
2019-01-26T02:11:41.210Z,7.49
2019-01-26T02:14:11.800Z,7.51
2019-01-26T02:16:50.077Z,7.48
2019-01-26T02:19:16.416Z,7.46
2019-01-26T02:21:47.200Z,7.49
2019-01-26T02:24:17.765Z,7.46
2019-01-26T02:26:48.121Z,7.50
2019-01-26T02:29:19.109Z,7.50
2019-01-26T02:31:51.338Z,7.53
2019-01-26T02:34:23.004Z,7.58
2019-01-26T02:36:53.733Z,7.55
2019-01-26T02:39:24.449Z,7.57
2019-01-26T02:41:54.883Z,7.56
2019-01-26T02:44:25.560Z,7.55
2019-01-26T02:46:58.123Z,7.62
2019-01-26T02:49:28.567Z,7.59
2019-01-26T02:51:59.139Z,7.62
2019-01-26T02:54:29.701Z,7.58
2019-01-26T02:57:03.134Z,7.59
2019-01-26T02:59:33.723Z,7.57
2019-01-26T03:02:05.720Z,7.57
2019-01-26T03:04:36.241Z,7.59
2019-01-26T03:07:06.834Z,7.63
2019-01-26T03:09:37.550Z,7.60
2019-01-26T03:12:08.219Z,7.58
2019-01-26T03:14:38.866Z,7.60
2019-01-26T03:17:10.031Z,7.61
2019-01-26T03:19:40.750Z,7.61
2019-01-26T03:22:11.879Z,7.63
2019-01-26T03:24:43.716Z,7.65
2019-01-26T03:27:14.270Z,7.62
2019-01-26T03:29:46.395Z,7.64
2019-01-26T03:32:17.151Z,7.60
2019-01-26T03:34:48.853Z,7.58
2019-01-26T03:37:21.578Z,7.64
2019-01-26T03:39:52.231Z,7.65
2019-01-26T03:42:22.967Z,7.70
2019-01-26T03:44:53.659Z,7.70
2019-01-26T03:47:24.262Z,7.69
2019-01-26T03:49:55.059Z,7.69
2019-01-26T03:52:27.108Z,7.66
2019-01-26T03:54:57.851Z,7.67
2019-01-26T03:57:28.394Z,7.68
2019-01-26T03:59:59.014Z,7.72
2019-01-26T04:02:29.622Z,7.70
2019-01-26T04:05:00.477Z,7.73
2019-01-26T04:07:32.007Z,7.73
2019-01-26T04:10:03.695Z,7.75
2019-01-26T04:12:34.331Z,7.73
2019-01-26T04:15:05.239Z,7.73
2019-01-26T04:17:35.894Z,7.73
2019-01-26T04:20:07.617Z,7.74
2019-01-26T04:22:38.556Z,7.74
2019-01-26T04:25:09.287Z,7.74
2019-01-26T04:27:40.009Z,7.75
2019-01-26T04:30:13.259Z,7.75
2019-01-26T04:32:43.820Z,7.81
2019-01-26T04:35:17.119Z,7.79
2019-01-26T04:37:47.848Z,7.77
2019-01-26T04:40:19.764Z,7.78
2019-01-26T04:42:50.321Z,7.74
2019-01-26T04:45:22.914Z,7.76
2019-01-26T04:47:53.745Z,7.74
2019-01-26T04:50:24.330Z,7.76
2019-01-26T04:52:54.985Z,7.74
2019-01-26T04:55:27.485Z,7.75
2019-01-26T04:57:58.145Z,7.69
2019-01-26T05:00:29.964Z,7.70
2019-01-26T05:03:00.568Z,7.72
2019-01-26T05:05:31.316Z,7.71
2019-01-26T05:08:03.022Z,7.67
2019-01-26T05:10:33.770Z,7.70
2019-01-26T05:13:04.527Z,7.70
2019-01-26T05:15:35.217Z,7.71
2019-01-26T05:18:05.898Z,7.68
2019-01-26T05:20:36.297Z,7.70
2019-01-26T05:23:07.016Z,7.67
2019-01-26T05:25:37.645Z,7.74
2019-01-26T05:28:08.173Z,7.71
2019-01-26T05:30:38.813Z,7.69
2019-01-26T05:33:09.437Z,7.65
2019-01-26T05:35:41.133Z,7.65
2019-01-26T05:38:11.837Z,7.64
2019-01-26T05:40:42.824Z,7.59
2019-01-26T05:43:14.572Z,7.57
2019-01-26T05:45:45.168Z,7.58
2019-01-26T05:48:15.730Z,7.53
2019-01-26T05:50:46.436Z,7.48
2019-01-26T05:53:17.124Z,7.48
2019-01-26T05:55:47.715Z,7.43
2019-01-26T05:58:18.362Z,7.40
2019-01-26T06:00:49.008Z,7.40
2019-01-26T06:03:19.548Z,7.36
2019-01-26T06:05:50.584Z,7.39
2019-01-26T06:08:22.144Z,7.39
2019-01-26T06:10:52.735Z,7.32
2019-01-26T06:13:24.493Z,7.32
2019-01-26T06:15:55.198Z,7.33
2019-01-26T06:18:26.134Z,7.26
2019-01-26T06:20:59.135Z,7.26
2019-01-26T06:23:29.787Z,7.24
2019-01-26T06:26:00.558Z,7.22
2019-01-26T06:28:31.128Z,7.29
2019-01-26T06:31:02.042Z,7.30
2019-01-26T06:33:32.795Z,7.36
2019-01-26T06:36:03.410Z,7.30
2019-01-26T06:38:35.717Z,7.33
2019-01-26T06:41:07.417Z,7.32
2019-01-26T06:43:38.114Z,7.32
2019-01-26T06:46:08.930Z,7.20
2019-01-26T06:48:40.851Z,7.05
2019-01-26T06:51:11.507Z,7.01
2019-01-26T06:53:41.928Z,6.88
2019-01-26T06:56:12.590Z,6.82
2019-01-26T06:58:44.482Z,6.76
2019-01-26T07:01:16.654Z,6.74
2019-01-26T07:03:48.632Z,6.64
2019-01-26T07:06:23.090Z,6.62
2019-01-26T07:08:53.662Z,6.50
2019-01-26T07:11:24.314Z,6.54
2019-01-26T07:13:55.067Z,6.48
2019-01-26T07:16:26.580Z,6.46
2019-01-26T07:18:58.588Z,6.45
2019-01-26T07:21:30.493Z,6.43
2019-01-26T07:24:01.077Z,6.40
2019-01-26T07:26:31.622Z,6.37
2019-01-26T07:29:02.391Z,6.48
2019-01-26T07:31:32.856Z,6.47
2019-01-26T07:34:03.580Z,6.48
2019-01-26T07:36:34.463Z,6.55
2019-01-26T07:39:06.678Z,6.57
2019-01-26T07:41:38.007Z,6.63
2019-01-26T07:44:08.917Z,6.65
2019-01-26T07:46:39.447Z,6.67
2019-01-26T07:49:10.087Z,6.71
2019-01-26T07:51:40.878Z,6.89
2019-01-26T07:54:11.556Z,7.03
2019-01-26T07:56:42.755Z,7.13
2019-01-26T07:59:13.494Z,7.21
2019-01-26T08:01:44.169Z,7.15
2019-01-26T08:04:14.893Z,7.14
2019-01-26T08:06:46.722Z,7.19
2019-01-26T08:09:18.650Z,7.16
2019-01-26T08:11:49.287Z,7.15
2019-01-26T08:14:21.070Z,7.19
2019-01-26T08:16:51.792Z,7.04
2019-01-26T08:19:22.670Z,6.90
2019-01-26T08:21:53.414Z,6.75
2019-01-26T08:24:24.105Z,6.66
2019-01-26T08:26:55.274Z,6.59
2019-01-26T08:29:25.979Z,6.66
2019-01-26T08:31:56.731Z,6.61
2019-01-26T08:34:27.493Z,6.66
2019-01-26T08:36:57.976Z,6.70
2019-01-26T08:39:28.622Z,6.69
2019-01-26T08:41:59.344Z,6.66
2019-01-26T08:44:30.394Z,6.73
2019-01-26T08:47:00.979Z,6.72
2019-01-26T08:49:31.494Z,6.63
2019-01-26T08:52:01.958Z,6.66
2019-01-26T08:54:32.624Z,6.68
2019-01-26T08:57:03.460Z,6.67
2019-01-26T08:59:33.963Z,6.68
2019-01-26T09:02:25.554Z,6.78
2019-01-26T09:04:56.575Z,6.86
2019-01-26T09:07:27.297Z,6.96
2019-01-26T09:09:58.503Z,7.01
2019-01-26T09:12:32.776Z,6.98
2019-01-26T09:15:03.326Z,6.96
2019-01-26T09:17:33.980Z,7.04
2019-01-26T09:20:08.248Z,7.04
2019-01-26T09:22:40.232Z,6.98
2019-01-26T09:25:11.149Z,6.89
2019-01-26T09:27:42.387Z,6.63
2019-01-26T09:30:13.615Z,6.50
2019-01-26T09:32:44.336Z,6.48
2019-01-26T09:35:15.432Z,6.32
2019-01-26T09:37:47.184Z,6.33
2019-01-26T09:40:19.051Z,6.23
2019-01-26T09:42:50.168Z,6.22
2019-01-26T09:45:21.108Z,6.18
2019-01-26T09:47:52.765Z,6.18
2019-01-26T09:50:23.539Z,6.18
2019-01-26T09:52:54.239Z,6.23
2019-01-26T09:55:25.059Z,6.21
2019-01-26T09:57:56.115Z,6.17
2019-01-26T10:00:37.442Z,6.18
2019-01-26T10:03:08.061Z,6.18
2019-01-26T10:05:39.725Z,6.10
2019-01-26T10:08:10.554Z,6.13
2019-01-26T10:10:41.244Z,6.12
2019-01-26T10:13:13.397Z,5.99
2019-01-26T10:15:44.271Z,5.91
2019-01-26T10:18:15.217Z,5.99
2019-01-26T10:20:45.871Z,5.99
2019-01-26T10:23:17.014Z,6.04
2019-01-26T10:25:48.835Z,6.04
2019-01-26T10:28:19.864Z,6.05
2019-01-26T10:31:01.197Z,6.05
2019-01-26T10:33:33.277Z,6.01
2019-01-26T10:36:22.852Z,5.78
2019-01-26T10:39:05.782Z,5.71
2019-01-26T10:41:58.437Z,5.64
2019-01-26T10:44:30.896Z,5.71
2019-01-26T10:47:03.158Z,5.77
2019-01-26T10:49:33.680Z,5.85
2019-01-26T10:52:05.148Z,5.89
2019-01-26T10:54:39.775Z,5.87
2019-01-26T10:57:12.298Z,5.81
2019-01-26T10:59:42.968Z,5.83
2019-01-26T11:02:14.424Z,5.64
2019-01-26T11:04:46.350Z,5.64
2019-01-26T11:07:16.998Z,5.60
2019-01-26T11:09:47.814Z,5.60
2019-01-26T11:12:19.174Z,5.56
2019-01-26T11:14:49.775Z,5.48
2019-01-26T11:17:20.678Z,5.50
2019-01-26T11:19:51.799Z,5.49
2019-01-26T11:22:22.546Z,5.44
2019-01-26T11:24:53.184Z,5.43
2019-01-26T11:27:23.973Z,5.55
2019-01-26T11:29:54.578Z,5.48
2019-01-26T11:32:25.274Z,5.47
2019-01-26T11:34:56.435Z,5.42
2019-01-26T11:37:27.189Z,5.42
2019-01-26T11:40:04.400Z,5.51
2019-01-26T11:42:35.051Z,5.41
2019-01-26T11:45:24.522Z,5.34
2019-01-26T11:47:56.114Z,5.36
2019-01-26T11:50:32.882Z,5.46
2019-01-26T11:53:03.434Z,5.26
2019-01-26T11:58:30.369Z,5.14
2019-01-26T12:01:19.771Z,5.12
2019-01-26T12:04:06.817Z,5.08
2019-01-26T12:06:43.712Z,5.10
2019-01-26T12:09:19.087Z,5.16
2019-01-26T12:11:50.338Z,5.22
2019-01-26T12:14:21.231Z,5.13
2019-01-26T12:16:54.761Z,5.11
2019-01-26T12:19:25.048Z,5.09
2019-01-26T12:21:56.731Z,5.13
2019-01-26T12:24:27.477Z,5.26
2019-01-26T12:27:00.261Z,5.23
2019-01-26T12:29:30.739Z,5.16
2019-01-26T12:32:02.619Z,5.20
2019-01-26T12:34:33.155Z,5.31
2019-01-26T12:37:05.068Z,5.15
2019-01-26T12:39:35.981Z,5.18
2019-01-26T12:42:06.765Z,5.01
2019-01-26T12:44:37.574Z,4.91
2019-01-26T12:47:08.076Z,4.96
2019-01-26T12:49:39.632Z,5.01
2019-01-26T12:52:10.723Z,5.02
2019-01-26T12:54:41.193Z,4.92
2019-01-26T12:57:11.491Z,4.95
2019-01-26T12:59:42.420Z,5.01
2019-01-26T13:02:12.865Z,5.02
2019-01-26T13:04:43.231Z,5.13
2019-01-26T13:07:13.565Z,5.21
2019-01-26T13:09:45.565Z,5.04
2019-01-26T13:12:16.133Z,4.83
2019-01-26T13:14:46.457Z,4.61
2019-01-26T13:17:17.082Z,4.62
2019-01-26T13:19:47.358Z,4.55
2019-01-26T13:22:17.631Z,4.43
2019-01-26T13:24:48.221Z,4.27
2019-01-26T13:27:18.605Z,4.21
2019-01-26T13:29:49.111Z,4.15
2019-01-26T13:32:27.549Z,4.22
2019-01-26T13:34:58.400Z,4.22
2019-01-26T13:37:28.941Z,4.27
2019-01-26T13:40:01.460Z,4.14
2019-01-26T13:42:31.910Z,4.15
2019-01-26T13:45:05.285Z,4.26
2019-01-26T13:47:37.946Z,4.25
2019-01-26T13:50:10.742Z,4.25
2019-01-26T13:52:48.517Z,4.15
2019-01-26T13:55:24.047Z,4.06
2019-01-26T13:57:55.661Z,4.07
2019-01-26T14:00:28.536Z,4.11
2019-01-26T14:02:58.865Z,4.12
2019-01-26T14:05:29.277Z,4.00
2019-01-26T14:07:59.755Z,3.98
2019-01-26T14:10:30.590Z,3.96
2019-01-26T14:13:02.166Z,4.00
2019-01-26T14:15:32.674Z,4.02
2019-01-26T14:18:04.939Z,4.00
2019-01-26T14:20:35.337Z,3.99
2019-01-26T14:23:05.661Z,4.00
2019-01-26T14:25:36.043Z,3.99
2019-01-26T14:28:06.476Z,3.96
2019-01-26T14:30:39.705Z,3.94
2019-01-26T14:33:10.109Z,3.91
2019-01-26T14:35:40.526Z,3.97
2019-01-26T14:38:10.918Z,3.90
2019-01-26T14:40:41.267Z,3.92
2019-01-26T14:43:11.678Z,3.91
2019-01-26T14:45:41.957Z,3.90
2019-01-26T14:48:13.109Z,3.87
2019-01-26T14:50:43.744Z,3.90
2019-01-26T14:53:14.593Z,3.95
2019-01-26T14:55:45.219Z,3.97
2019-01-26T14:58:15.916Z,3.94
2019-01-26T15:00:46.413Z,3.97
2019-01-26T15:03:16.859Z,3.94
2019-01-26T15:05:47.610Z,3.93
2019-01-26T15:08:18.187Z,3.94
2019-01-26T15:10:48.814Z,3.91
2019-01-26T15:13:19.397Z,3.95
2019-01-26T15:15:50.079Z,4.01
2019-01-26T15:18:21.103Z,4.00
2019-01-26T15:20:51.921Z,3.91
2019-01-26T15:23:22.249Z,3.92
2019-01-26T15:25:52.710Z,3.86
2019-01-26T15:28:23.148Z,3.88
2019-01-26T15:30:53.992Z,3.82
2019-01-26T15:33:24.466Z,3.73
2019-01-26T15:35:54.950Z,3.70
2019-01-26T15:38:25.584Z,3.66
2019-01-26T15:40:55.982Z,3.61
2019-01-26T15:43:26.393Z,3.61
2019-01-26T15:45:56.732Z,3.62
2019-01-26T15:48:27.067Z,3.62
2019-01-26T15:50:57.418Z,3.54
2019-01-26T15:53:27.894Z,3.57
2019-01-26T15:55:58.220Z,3.44
2019-01-26T15:58:28.607Z,3.40
2019-01-26T16:00:59.328Z,3.28
2019-01-26T16:03:29.687Z,3.26
2019-01-26T16:06:00.155Z,3.24
2019-01-26T16:08:30.475Z,3.19
2019-01-26T16:11:00.859Z,3.12
2019-01-26T16:13:31.335Z,3.11
2019-01-26T16:16:01.769Z,3.15
2019-01-26T16:18:36.717Z,3.14
2019-01-26T16:21:07.435Z,3.13
2019-01-26T16:23:37.608Z,3.08
2019-01-26T16:26:08.237Z,3.06
2019-01-26T16:28:38.232Z,3.08
2019-01-26T16:31:08.404Z,3.10
2019-01-26T16:33:38.591Z,3.11
2019-01-26T16:36:08.788Z,3.18
2019-01-26T16:38:38.915Z,3.19
2019-01-26T16:41:09.194Z,3.16
2019-01-26T16:43:39.294Z,3.17
2019-01-26T16:46:09.536Z,3.13
2019-01-26T16:48:39.730Z,3.20
2019-01-26T16:51:10.199Z,3.23
2019-01-26T16:53:40.702Z,3.17
2019-01-26T16:56:11.486Z,3.18
2019-01-26T16:58:42.371Z,3.21
2019-01-26T17:01:12.874Z,3.19
2019-01-26T17:03:44.438Z,3.14
2019-01-26T17:06:15.018Z,3.16
2019-01-26T17:08:45.767Z,3.05
2019-01-26T17:11:16.204Z,3.13
2019-01-26T17:13:46.543Z,3.09
2019-01-26T17:16:16.963Z,3.11
2019-01-26T17:18:47.605Z,3.08
2019-01-26T17:21:17.767Z,3.03
2019-01-26T17:23:48.211Z,3.02
2019-01-26T17:26:18.236Z,3.02
2019-01-26T17:28:48.401Z,2.97
2019-01-26T17:31:19.056Z,3.00
2019-01-26T17:33:49.437Z,3.03
2019-01-26T17:36:19.878Z,3.03
2019-01-26T17:38:50.335Z,3.02
2019-01-26T17:41:20.913Z,3.06
2019-01-26T17:43:51.698Z,3.06
2019-01-26T17:46:21.849Z,3.08
2019-01-26T17:48:53.895Z,3.08
2019-01-26T17:51:24.354Z,3.03
2019-01-26T17:53:54.731Z,3.06
2019-01-26T17:56:27.057Z,3.02
2019-01-26T17:58:57.488Z,3.07
2019-01-26T18:01:28.423Z,3.03
2019-01-26T18:03:59.967Z,3.07
2019-01-26T18:06:30.418Z,3.10
2019-01-26T18:09:00.930Z,3.07
2019-01-26T18:11:32.768Z,3.11
2019-01-26T18:14:03.234Z,3.09
2019-01-26T18:16:33.568Z,3.09
2019-01-26T18:19:04.106Z,3.08
2019-01-26T18:21:34.700Z,3.07
2019-01-26T18:24:05.336Z,3.08
2019-01-26T18:26:36.111Z,3.09
2019-01-26T18:29:06.579Z,3.09
2019-01-26T18:31:36.934Z,3.12
2019-01-26T18:34:07.460Z,3.12
2019-01-26T18:36:37.861Z,3.07
2019-01-26T18:39:10.182Z,3.03
2019-01-26T18:41:40.637Z,2.98
2019-01-26T18:44:11.121Z,3.02
2019-01-26T18:46:41.521Z,3.00
2019-01-26T18:49:12.159Z,2.93
2019-01-26T18:51:46.934Z,2.94
2019-01-26T18:54:17.631Z,2.88
2019-01-26T18:56:49.686Z,2.85
2019-01-26T18:59:24.479Z,2.89
2019-01-26T19:01:54.963Z,2.85
2019-01-26T19:04:29.591Z,2.87
2019-01-26T19:07:00.319Z,2.81
2019-01-26T19:09:30.941Z,2.82
2019-01-26T19:12:01.867Z,2.83
2019-01-26T19:14:32.920Z,2.84
2019-01-26T19:17:03.414Z,2.85
2019-01-26T19:19:33.952Z,2.85
2019-01-26T19:22:04.468Z,2.88
2019-01-26T19:24:36.744Z,2.83
2019-01-26T19:27:08.313Z,2.83
2019-01-26T19:29:39.118Z,2.85
2019-01-26T19:32:09.594Z,2.85
2019-01-26T19:34:40.084Z,2.85
2019-01-26T19:37:10.713Z,2.83
2019-01-26T19:39:41.180Z,2.85
2019-01-26T19:42:11.810Z,2.88
2019-01-26T19:44:42.209Z,2.86
2019-01-26T19:47:12.671Z,2.83
2019-01-26T19:49:43.173Z,2.86
2019-01-26T19:52:13.635Z,2.87
2019-01-26T19:54:44.053Z,2.87
2019-01-26T19:57:14.725Z,2.86
2019-01-26T19:59:45.117Z,2.86
2019-01-26T20:02:15.766Z,2.89
2019-01-26T20:04:46.338Z,2.89
2019-01-26T20:07:16.771Z,2.88
2019-01-26T20:09:47.825Z,2.93
2019-01-26T20:12:19.710Z,2.96
2019-01-26T20:14:50.022Z,2.94
2019-01-26T20:17:20.237Z,2.96
2019-01-26T20:19:50.687Z,2.94
2019-01-26T20:22:21.330Z,2.98
2019-01-26T20:24:51.789Z,3.02
2019-01-26T20:27:22.203Z,3.02
2019-01-26T20:29:52.625Z,2.93
2019-01-26T20:32:23.090Z,3.05
2019-01-26T20:34:53.488Z,3.05
2019-01-26T20:37:23.824Z,3.03
2019-01-26T20:39:54.047Z,3.02
2019-01-26T20:42:24.531Z,3.05
2019-01-26T20:44:54.953Z,3.05
2019-01-26T20:47:25.433Z,3.00
2019-01-26T20:49:55.796Z,2.99
2019-01-26T20:52:26.278Z,3.08
2019-01-26T20:54:56.528Z,3.05
2019-01-26T20:57:27.163Z,3.08
2019-01-26T20:59:57.556Z,3.08
2019-01-26T21:02:27.976Z,3.10
2019-01-26T21:04:58.478Z,3.10
2019-01-26T21:07:30.992Z,3.07
2019-01-26T21:10:01.254Z,3.03
2019-01-26T21:12:31.720Z,2.98
2019-01-26T21:15:04.729Z,3.00
2019-01-26T21:17:34.461Z,3.07
2019-01-26T21:20:06.546Z,3.01
2019-01-26T21:22:37.074Z,3.09
2019-01-26T21:25:08.595Z,3.14
2019-01-26T21:27:39.087Z,3.10
2019-01-26T21:30:13.466Z,3.16
2019-01-26T21:32:43.936Z,3.12
2019-01-26T21:35:14.416Z,3.08
2019-01-26T21:37:46.358Z,3.12
2019-01-26T21:40:19.931Z,3.07
2019-01-26T21:42:50.316Z,3.07
2019-01-26T21:45:21.165Z,3.06
2019-01-26T21:47:52.025Z,3.14
2019-01-26T21:50:24.351Z,2.99
2019-01-26T21:52:55.743Z,2.99
2019-01-26T21:55:28.398Z,2.98
2019-01-26T21:57:59.007Z,2.95
2019-01-26T22:00:34.449Z,2.95
2019-01-26T22:03:06.306Z,2.91
2019-01-26T22:05:36.870Z,2.92
2019-01-26T22:08:07.349Z,2.93
2019-01-26T22:10:38.873Z,2.91
2019-01-26T22:13:10.181Z,2.88
2019-01-26T22:15:40.611Z,2.90
2019-01-26T22:18:12.283Z,2.88
2019-01-26T22:20:42.600Z,2.86
2019-01-26T22:23:13.675Z,2.73
2019-01-26T22:25:44.144Z,2.73
2019-01-26T22:28:14.675Z,2.70
2019-01-26T22:30:45.425Z,2.70
2019-01-26T22:33:15.884Z,2.63
2019-01-26T22:35:46.295Z,2.62
2019-01-26T22:38:18.123Z,2.61
2019-01-26T22:40:48.663Z,2.57
2019-01-26T22:43:19.084Z,2.56
2019-01-26T22:45:49.590Z,2.45
2019-01-26T22:48:20.338Z,2.38
2019-01-26T22:50:50.994Z,2.33
2019-01-26T22:53:21.622Z,2.36
2019-01-26T22:55:52.156Z,2.42
2019-01-26T22:58:23.219Z,2.42
2019-01-26T23:01:30.529Z,2.51
2019-01-26T23:04:27.035Z,2.61
2019-01-26T23:07:29.607Z,2.64
2019-01-26T23:10:09.886Z,2.55
2019-01-26T23:12:56.592Z,2.56
2019-01-26T23:16:04.202Z,2.51
2019-01-26T23:18:58.062Z,2.55
2019-01-26T23:22:08.728Z,2.52
2019-01-26T23:25:24.445Z,2.53
2019-01-26T23:28:35.510Z,2.41
2019-01-26T23:31:14.866Z,2.53
2019-01-26T23:33:46.547Z,2.55
2019-01-26T23:36:17.706Z,2.54
2019-01-26T23:38:48.203Z,2.50
2019-01-26T23:41:18.612Z,2.58
2019-01-26T23:43:48.931Z,2.62
2019-01-26T23:46:19.563Z,2.58
2019-01-26T23:48:49.915Z,2.70
2019-01-26T23:51:20.515Z,2.74
2019-01-26T23:53:51.193Z,2.81
2019-01-26T23:56:21.639Z,2.90
2019-01-26T23:58:52.308Z,3.03
